createdAt,value
2022-09-10T00:00:06.460Z,15.99
2022-09-10T00:02:37.698Z,15.90
2022-09-10T00:05:05.267Z,15.74
2022-09-10T00:07:32.870Z,15.75
2022-09-10T00:09:59.853Z,15.47
2022-09-10T00:12:26.888Z,15.96
2022-09-10T00:14:54.388Z,15.74
2022-09-10T00:17:21.532Z,15.78
2022-09-10T00:19:48.603Z,15.98
2022-09-10T00:22:15.796Z,15.86
2022-09-10T00:24:42.780Z,15.67
2022-09-10T00:27:10.261Z,15.85
2022-09-10T00:29:38.091Z,15.60
2022-09-10T00:32:05.362Z,15.77
2022-09-10T00:34:32.780Z,15.81
2022-09-10T00:37:00.075Z,15.84
2022-09-10T00:39:27.112Z,15.82
2022-09-10T00:41:54.974Z,15.79
2022-09-10T00:44:40.354Z,15.88
2022-09-10T00:47:20.002Z,15.65
2022-09-10T00:49:50.099Z,15.47
2022-09-10T00:52:17.843Z,15.32
2022-09-10T00:54:46.773Z,15.52
2022-09-10T00:57:19.311Z,15.70
2022-09-10T00:59:51.068Z,15.64
2022-09-10T01:02:18.234Z,15.67
2022-09-10T01:04:45.764Z,15.71
2022-09-10T01:07:14.367Z,15.66
2022-09-10T01:09:42.487Z,15.37
2022-09-10T01:12:47.024Z,15.56
2022-09-10T01:15:29.278Z,15.52
2022-09-10T01:18:26.398Z,15.51
2022-09-10T01:21:08.145Z,15.70
2022-09-10T01:23:47.458Z,15.58
2022-09-10T01:26:45.939Z,15.65
2022-09-10T01:29:24.239Z,15.70
2022-09-10T01:31:59.614Z,15.27
2022-09-10T01:34:32.754Z,15.43
2022-09-10T01:37:12.229Z,15.58
2022-09-10T01:39:40.280Z,15.75
2022-09-10T01:42:07.687Z,15.59
2022-09-10T01:44:50.034Z,15.70
2022-09-10T01:48:06.122Z,15.76
2022-09-10T01:51:11.058Z,15.52
2022-09-10T01:54:02.477Z,15.47
2022-09-10T01:56:38.727Z,15.49
2022-09-10T01:59:34.276Z,15.43
2022-09-10T02:02:19.549Z,15.42
2022-09-10T02:04:50.362Z,15.44
2022-09-10T02:07:22.322Z,15.51
2022-09-10T02:09:52.191Z,15.11
2022-09-10T02:12:22.875Z,15.48
2022-09-10T02:15:05.945Z,15.39
2022-09-10T02:17:47.030Z,15.20
2022-09-10T02:20:14.680Z,15.21
2022-09-10T02:22:58.554Z,15.39
2022-09-10T02:25:32.491Z,15.47
2022-09-10T02:28:03.164Z,15.40
2022-09-10T02:30:30.459Z,15.37
2022-09-10T02:32:57.797Z,15.27
2022-09-10T02:35:24.767Z,15.47
2022-09-10T02:37:53.323Z,15.25
2022-09-10T02:40:20.349Z,15.60
2022-09-10T02:42:47.491Z,15.63
2022-09-10T02:45:18.897Z,15.55
2022-09-10T02:47:46.025Z,15.49
2022-09-10T02:50:15.901Z,15.61
2022-09-10T02:52:46.119Z,15.45
2022-09-10T02:55:13.560Z,15.26
2022-09-10T02:57:42.145Z,15.54
2022-09-10T03:00:10.720Z,15.51
2022-09-10T03:02:37.902Z,15.50
2022-09-10T03:05:05.409Z,15.20
2022-09-10T03:07:33.122Z,15.43
2022-09-10T03:10:01.470Z,15.43
2022-09-10T03:12:28.462Z,15.48
2022-09-10T03:14:58.022Z,15.45
2022-09-10T03:17:26.033Z,15.35
2022-09-10T03:19:53.054Z,15.40
2022-09-10T03:22:21.813Z,15.30
2022-09-10T03:24:48.821Z,15.50
2022-09-10T03:27:18.106Z,15.49
2022-09-10T03:29:45.231Z,15.49
2022-09-10T03:32:13.931Z,15.63
2022-09-10T03:34:40.975Z,15.36
2022-09-10T03:37:07.965Z,15.55
2022-09-10T03:39:36.200Z,15.55
2022-09-10T03:42:05.111Z,15.47
2022-09-10T03:44:33.514Z,15.50
2022-09-10T03:47:01.280Z,15.49
2022-09-10T03:49:28.923Z,15.54
2022-09-10T03:51:56.114Z,15.30
2022-09-10T03:54:24.586Z,15.62
2022-09-10T03:56:51.906Z,15.56
2022-09-10T03:59:19.017Z,15.57
2022-09-10T04:01:47.179Z,15.52
2022-09-10T04:04:14.904Z,15.67
2022-09-10T04:06:42.537Z,15.49
2022-09-10T04:09:10.690Z,15.56
2022-09-10T04:11:38.038Z,15.53
2022-09-10T04:14:05.422Z,15.54
2022-09-10T04:16:35.913Z,15.52
2022-09-10T04:19:03.494Z,15.37
2022-09-10T04:21:31.476Z,15.44
2022-09-10T04:24:01.959Z,15.50
2022-09-10T04:26:29.386Z,15.42
2022-09-10T04:28:56.530Z,15.42
2022-09-10T04:31:23.849Z,15.39
2022-09-10T04:33:54.983Z,15.47
2022-09-10T04:36:25.636Z,15.44
2022-09-10T04:38:52.668Z,15.19
2022-09-10T04:41:19.766Z,15.19
2022-09-10T04:43:48.190Z,15.45
2022-09-10T04:46:15.622Z,15.39
2022-09-10T04:48:43.367Z,15.51
2022-09-10T04:51:17.590Z,15.49
2022-09-10T04:53:49.633Z,15.24
2022-09-10T04:56:16.942Z,15.43
2022-09-10T04:58:44.625Z,15.23
2022-09-10T05:01:14.463Z,15.17
2022-09-10T05:03:44.567Z,15.40
2022-09-10T05:06:12.487Z,15.25
2022-09-10T05:08:40.601Z,15.39
2022-09-10T05:11:08.280Z,15.34
2022-09-10T05:13:35.315Z,15.21
2022-09-10T05:16:02.580Z,15.04
2022-09-10T05:18:32.121Z,15.15
2022-09-10T05:20:59.510Z,15.36
2022-09-10T05:23:28.004Z,15.34
2022-09-10T05:25:56.666Z,15.33
2022-09-10T05:28:24.641Z,15.39
2022-09-10T05:30:52.549Z,15.20
2022-09-10T05:33:22.579Z,15.31
2022-09-10T05:35:53.003Z,15.46
2022-09-10T05:38:21.382Z,15.25
2022-09-10T05:40:48.928Z,15.54
2022-09-10T05:43:15.985Z,15.64
2022-09-10T05:45:44.978Z,15.62
2022-09-10T05:48:12.999Z,15.75
2022-09-10T05:50:40.957Z,15.52
2022-09-10T05:53:09.962Z,15.65
2022-09-10T05:55:37.923Z,15.77
2022-09-10T05:58:06.310Z,15.84
2022-09-10T06:00:36.496Z,15.88
2022-09-10T06:03:04.422Z,15.84
2022-09-10T06:05:37.354Z,15.79
2022-09-10T06:08:08.557Z,15.85
2022-09-10T06:10:38.530Z,15.96
2022-09-10T06:13:07.082Z,16.07
2022-09-10T06:15:35.722Z,16.10
2022-09-10T06:18:03.249Z,16.09
2022-09-10T06:20:32.034Z,16.14
2022-09-10T06:22:59.786Z,16.08
2022-09-10T06:25:27.288Z,16.33
2022-09-10T06:27:54.949Z,16.19
2022-09-10T06:30:22.284Z,16.24
2022-09-10T06:32:49.341Z,16.18
2022-09-10T06:35:16.573Z,16.36
2022-09-10T06:37:44.079Z,16.22
2022-09-10T06:40:12.488Z,16.43
2022-09-10T06:42:41.276Z,16.40
2022-09-10T06:45:14.258Z,16.40
2022-09-10T06:48:37.059Z,16.51
2022-09-10T06:51:01.888Z,16.34
2022-09-10T06:53:36.482Z,16.57
2022-09-10T06:56:05.896Z,16.62
2022-09-10T06:58:37.388Z,16.62
2022-09-10T07:01:13.115Z,16.71
2022-09-10T07:03:43.406Z,16.79
2022-09-10T07:06:13.326Z,17.03
2022-09-10T07:08:41.587Z,17.16
2022-09-10T07:11:14.674Z,17.01
2022-09-10T07:13:43.110Z,17.08
2022-09-10T07:16:10.403Z,16.69
2022-09-10T07:18:37.513Z,16.91
2022-09-10T07:21:13.546Z,16.74
2022-09-10T07:23:48.317Z,16.56
2022-09-10T07:26:17.661Z,16.41
2022-09-10T07:28:48.600Z,16.55
2022-09-10T07:31:20.090Z,16.71
2022-09-10T07:33:49.691Z,16.87
2022-09-10T07:36:18.243Z,17.02
2022-09-10T07:38:48.178Z,17.24
2022-09-10T07:41:15.365Z,17.61
2022-09-10T07:43:43.955Z,17.98
2022-09-10T07:46:19.150Z,18.07
2022-09-10T07:48:48.553Z,17.93
2022-09-10T07:51:19.327Z,18.14
2022-09-10T07:53:53.330Z,18.42
2022-09-10T07:56:20.714Z,18.56
2022-09-10T07:58:49.251Z,18.18
2022-09-10T08:01:19.580Z,17.99
2022-09-10T08:03:47.010Z,17.63
2022-09-10T08:06:17.910Z,17.76
2022-09-10T08:08:46.328Z,18.05
2022-09-10T08:11:17.444Z,18.03
2022-09-10T08:13:49.502Z,18.25
2022-09-10T08:16:19.098Z,17.95
2022-09-10T08:18:51.070Z,18.64
2022-09-10T08:21:19.574Z,18.54
2022-09-10T08:23:50.858Z,18.90
2022-09-10T08:26:18.889Z,18.76
2022-09-10T08:28:47.890Z,19.09
2022-09-10T08:31:16.632Z,18.76
2022-09-10T08:33:51.719Z,19.13
2022-09-10T08:36:21.697Z,19.19
2022-09-10T08:38:50.267Z,19.07
2022-09-10T08:41:35.717Z,18.94
2022-09-10T08:44:33.735Z,18.55
2022-09-10T08:47:10.081Z,18.48
2022-09-10T08:49:58.521Z,18.30
2022-09-10T08:52:31.955Z,18.37
2022-09-10T08:55:19.231Z,18.51
2022-09-10T08:57:54.099Z,18.29
2022-09-10T09:00:32.385Z,18.22
2022-09-10T09:03:36.972Z,18.55
2022-09-10T09:06:08.404Z,18.96
2022-09-10T09:08:48.333Z,19.23
2022-09-10T09:11:34.239Z,19.64
2022-09-10T09:14:16.015Z,19.24
2022-09-10T09:17:01.908Z,19.20
2022-09-10T09:19:54.134Z,19.37
2022-09-10T09:22:40.166Z,19.35
2022-09-10T09:25:22.614Z,19.61
2022-09-10T09:27:57.511Z,19.42
2022-09-10T09:30:37.084Z,19.19
2022-09-10T09:33:18.396Z,18.71
2022-09-10T09:35:56.949Z,18.24
2022-09-10T09:38:30.596Z,17.77
2022-09-10T09:41:08.311Z,17.56
2022-09-10T09:43:52.333Z,17.14
2022-09-10T09:46:24.264Z,16.78
2022-09-10T09:48:57.529Z,17.02
2022-09-10T09:51:30.508Z,16.68
2022-09-10T09:54:34.519Z,16.87
2022-09-10T09:56:51.011Z,16.59
2022-09-10T09:59:26.674Z,17.01
2022-09-10T10:01:58.466Z,17.10
2022-09-10T10:04:30.898Z,16.87
2022-09-10T10:06:59.974Z,17.26
2022-09-10T10:09:32.971Z,17.42
2022-09-10T10:12:05.617Z,17.35
2022-09-10T10:14:32.646Z,18.05
2022-09-10T10:17:01.011Z,18.00
2022-09-10T10:19:40.082Z,18.02
2022-09-10T10:22:21.055Z,18.28
2022-09-10T10:24:52.495Z,18.55
2022-09-10T10:27:42.601Z,18.48
2022-09-10T10:30:18.575Z,18.64
2022-09-10T10:32:58.459Z,18.49
2022-09-10T10:36:03.834Z,18.15
2022-09-10T10:38:34.415Z,18.10
2022-09-10T10:41:30.868Z,18.03
2022-09-10T10:44:03.739Z,17.96
2022-09-10T10:46:55.790Z,18.08
2022-09-10T10:49:48.803Z,18.14
2022-09-10T10:52:26.448Z,18.45
2022-09-10T10:54:59.531Z,18.44
2022-09-10T10:58:01.553Z,18.53
2022-09-10T11:00:36.085Z,18.48
2022-09-10T11:03:25.135Z,18.12
2022-09-10T11:05:57.506Z,17.98
2022-09-10T11:08:31.801Z,17.74
2022-09-10T11:11:11.337Z,17.63
2022-09-10T11:13:57.531Z,17.42
2022-09-10T11:16:40.446Z,17.29
2022-09-10T11:19:37.135Z,17.31
2022-09-10T11:22:22.714Z,17.28
2022-09-10T11:24:57.370Z,17.13
2022-09-10T11:27:30.389Z,17.36
2022-09-10T11:30:05.479Z,17.50
2022-09-10T11:32:39.317Z,17.24
2022-09-10T11:35:15.220Z,17.90
2022-09-10T11:38:20.513Z,18.05
2022-09-10T11:41:17.874Z,18.02
2022-09-10T11:44:20.193Z,17.82
2022-09-10T11:47:04.137Z,18.09
2022-09-10T11:49:42.616Z,18.25
2022-09-10T11:52:11.903Z,18.36
2022-09-10T11:54:39.746Z,18.55
2022-09-10T11:57:12.776Z,18.70
2022-09-10T12:00:03.350Z,18.66
2022-09-10T12:02:38.984Z,18.81
2022-09-10T12:05:11.981Z,18.74
2022-09-10T12:08:06.754Z,19.09
2022-09-10T12:11:05.338Z,18.99
2022-09-10T12:13:36.996Z,18.88
2022-09-10T12:16:19.101Z,19.14
2022-09-10T12:18:50.284Z,18.73
2022-09-10T12:21:32.337Z,18.56
2022-09-10T12:24:03.427Z,18.58
2022-09-10T12:26:42.670Z,18.75
2022-09-10T12:29:29.523Z,18.45
2022-09-10T12:32:09.048Z,18.89
2022-09-10T12:34:37.134Z,19.06
2022-09-10T12:37:04.219Z,19.08
2022-09-10T12:39:32.054Z,19.17
2022-09-10T12:42:01.602Z,18.91
2022-09-10T12:44:43.886Z,19.06
2022-09-10T12:47:13.951Z,18.98
2022-09-10T12:50:00.713Z,18.68
2022-09-10T12:52:42.487Z,18.69
2022-09-10T12:55:31.845Z,18.43
2022-09-10T12:58:17.769Z,18.30
2022-09-10T13:00:58.048Z,18.32
2022-09-10T13:03:28.841Z,18.31
2022-09-10T13:06:01.957Z,18.20
2022-09-10T13:08:42.930Z,18.33
2022-09-10T13:11:22.394Z,18.23
2022-09-10T13:13:59.547Z,18.75
2022-09-10T13:16:26.527Z,18.67
2022-09-10T13:19:19.254Z,18.39
2022-09-10T13:21:47.974Z,18.49
2022-09-10T13:24:33.926Z,18.51
2022-09-10T13:27:41.585Z,18.80
2022-09-10T13:30:19.513Z,18.92
2022-09-10T13:32:57.935Z,19.11
2022-09-10T13:35:47.433Z,19.40
2022-09-10T13:38:20.774Z,19.64
2022-09-10T13:41:10.806Z,19.59
2022-09-10T13:43:48.602Z,19.69
2022-09-10T13:46:31.601Z,19.42
2022-09-10T13:49:13.512Z,18.86
2022-09-10T13:51:53.137Z,18.91
2022-09-10T13:54:34.935Z,18.83
2022-09-10T13:57:13.089Z,19.22
2022-09-10T13:59:42.007Z,19.29
2022-09-10T14:02:09.175Z,19.04
2022-09-10T14:04:41.973Z,19.23
2022-09-10T14:07:20.365Z,19.24
2022-09-10T14:09:56.636Z,18.86
2022-09-10T14:12:27.526Z,19.08
2022-09-10T14:14:59.019Z,18.87
2022-09-10T14:17:31.775Z,18.49
2022-09-10T14:20:01.409Z,18.49
2022-09-10T14:22:29.521Z,18.40
2022-09-10T14:24:59.780Z,18.21
2022-09-10T14:27:41.383Z,18.09
2022-09-10T14:30:25.478Z,17.96
2022-09-10T14:32:53.157Z,17.75
2022-09-10T14:35:42.960Z,17.85
2022-09-10T14:38:23.154Z,17.74
2022-09-10T14:40:58.258Z,17.49
2022-09-10T14:43:31.900Z,17.56
2022-09-10T14:46:00.402Z,17.37
2022-09-10T14:48:38.688Z,17.01
2022-09-10T14:51:10.565Z,17.20
2022-09-10T14:53:38.320Z,17.10
2022-09-10T14:56:16.099Z,17.14
2022-09-10T14:58:45.892Z,17.30
2022-09-10T15:01:12.931Z,17.15
2022-09-10T15:03:42.173Z,17.17
2022-09-10T15:06:11.085Z,17.08
2022-09-10T15:08:38.166Z,17.17
2022-09-10T15:11:06.571Z,17.30
2022-09-10T15:13:39.448Z,16.91
2022-09-10T15:16:06.518Z,17.13
2022-09-10T15:18:33.534Z,16.90
2022-09-10T15:21:02.087Z,16.96
2022-09-10T15:23:29.199Z,16.90
2022-09-10T15:25:57.911Z,16.77
2022-09-10T15:28:25.012Z,17.00
2022-09-10T15:30:52.651Z,17.03
2022-09-10T15:33:19.908Z,16.73
2022-09-10T15:35:47.927Z,17.06
2022-09-10T15:38:16.471Z,17.05
2022-09-10T15:40:43.767Z,17.02
2022-09-10T15:43:10.763Z,17.17
2022-09-10T15:45:38.865Z,17.18
2022-09-10T15:48:07.049Z,17.21
2022-09-10T15:50:34.604Z,17.19
2022-09-10T15:53:01.618Z,17.31
2022-09-10T15:55:29.168Z,17.19
2022-09-10T15:57:56.186Z,17.46
2022-09-10T16:00:23.679Z,17.55
2022-09-10T16:02:53.799Z,17.73
2022-09-10T16:05:21.223Z,17.72
2022-09-10T16:07:49.581Z,17.74
2022-09-10T16:10:17.119Z,17.89
2022-09-10T16:12:44.488Z,17.55
2022-09-10T16:15:12.183Z,17.75
2022-09-10T16:17:39.234Z,17.42
2022-09-10T16:20:06.598Z,17.68
2022-09-10T16:22:33.754Z,17.57
2022-09-10T16:25:00.761Z,17.66
2022-09-10T16:27:27.772Z,17.66
2022-09-10T16:29:54.912Z,17.53
2022-09-10T16:32:21.936Z,17.59
2022-09-10T16:34:48.946Z,17.53
2022-09-10T16:37:17.220Z,17.44
2022-09-10T16:39:44.260Z,17.06
2022-09-10T16:42:11.397Z,17.17
2022-09-10T16:44:38.564Z,16.84
2022-09-10T16:47:05.721Z,17.03
2022-09-10T16:49:32.790Z,17.13
2022-09-10T16:51:59.818Z,16.95
2022-09-10T16:54:26.869Z,17.00
2022-09-10T16:56:53.877Z,17.02
2022-09-10T16:59:22.698Z,17.05
2022-09-10T17:01:51.593Z,16.95
2022-09-10T17:04:23.578Z,17.03
2022-09-10T17:06:55.456Z,16.97
2022-09-10T17:09:22.617Z,16.97
2022-09-10T17:11:49.622Z,17.02
2022-09-10T17:14:16.619Z,16.82
2022-09-10T17:16:44.241Z,16.57
2022-09-10T17:19:17.512Z,16.63
2022-09-10T17:21:50.793Z,16.85
2022-09-10T17:24:20.912Z,16.82
2022-09-10T17:26:48.701Z,16.81
2022-09-10T17:29:19.037Z,16.66
2022-09-10T17:31:46.982Z,16.64
2022-09-10T17:34:16.082Z,16.66
2022-09-10T17:36:45.300Z,16.69
2022-09-10T17:39:13.183Z,16.74
2022-09-10T17:41:40.990Z,16.63
2022-09-10T17:44:09.226Z,16.78
2022-09-10T17:46:37.007Z,16.62
2022-09-10T17:49:04.399Z,16.73
2022-09-10T17:51:33.443Z,16.74
2022-09-10T17:54:02.858Z,16.35
2022-09-10T17:56:30.557Z,16.63
2022-09-10T17:59:01.368Z,16.71
2022-09-10T18:01:30.869Z,16.78
2022-09-10T18:03:58.049Z,16.71
2022-09-10T18:06:27.072Z,16.62
2022-09-10T18:08:58.862Z,16.46
2022-09-10T18:11:28.166Z,16.55
2022-09-10T18:13:57.181Z,16.39
2022-09-10T18:16:26.746Z,16.59
2022-09-10T18:18:59.961Z,16.58
2022-09-10T18:21:32.674Z,16.46
2022-09-10T18:24:05.560Z,16.37
2022-09-10T18:26:34.974Z,16.56
2022-09-10T18:29:05.310Z,16.40
2022-09-10T18:31:35.661Z,16.55
2022-09-10T18:34:04.043Z,16.47
2022-09-10T18:36:31.508Z,16.33
2022-09-10T18:39:02.561Z,16.36
2022-09-10T18:41:32.422Z,16.06
2022-09-10T18:44:03.904Z,16.37
2022-09-10T18:46:32.487Z,16.33
2022-09-10T18:49:00.464Z,16.28
2022-09-10T18:51:29.807Z,16.14
2022-09-10T18:53:59.915Z,15.97
2022-09-10T18:56:31.872Z,15.96
2022-09-10T18:59:05.505Z,16.33
2022-09-10T19:01:34.562Z,16.24
2022-09-10T19:04:03.067Z,16.21
2022-09-10T19:06:33.370Z,15.99
2022-09-10T19:09:06.828Z,16.24
2022-09-10T19:11:36.990Z,16.27
2022-09-10T19:14:08.621Z,16.14
2022-09-10T19:16:36.087Z,16.14
2022-09-10T19:19:06.402Z,16.20
2022-09-10T19:21:38.162Z,16.23
2022-09-10T19:24:05.298Z,16.24
2022-09-10T19:26:34.384Z,16.25
2022-09-10T19:29:02.051Z,16.27
2022-09-10T19:31:32.010Z,16.23
2022-09-10T19:34:09.666Z,16.02
2022-09-10T19:36:36.942Z,16.22
2022-09-10T19:39:09.152Z,16.21
2022-09-10T19:41:39.026Z,16.19
2022-09-10T19:44:07.806Z,16.16
2022-09-10T19:46:38.492Z,16.09
2022-09-10T19:49:06.510Z,16.00
2022-09-10T19:51:35.660Z,16.11
2022-09-10T19:54:03.557Z,16.07
2022-09-10T19:56:36.724Z,16.13
2022-09-10T19:59:08.507Z,16.13
2022-09-10T20:01:39.364Z,16.16
2022-09-10T20:04:08.594Z,16.09
2022-09-10T20:06:36.013Z,16.20
2022-09-10T20:09:05.013Z,16.21
2022-09-10T20:11:33.555Z,15.96
2022-09-10T20:14:03.824Z,16.20
2022-09-10T20:16:31.361Z,16.07
2022-09-10T20:18:58.371Z,16.12
2022-09-10T20:21:28.205Z,16.22
2022-09-10T20:23:56.268Z,16.19
2022-09-10T20:26:28.738Z,16.07
2022-09-10T20:28:59.157Z,16.17
2022-09-10T20:31:28.704Z,16.21
2022-09-10T20:33:57.783Z,16.16
2022-09-10T20:36:26.732Z,15.90
2022-09-10T20:38:54.645Z,16.12
2022-09-10T20:41:23.324Z,15.92
2022-09-10T20:43:51.729Z,16.19
2022-09-10T20:46:22.117Z,16.14
2022-09-10T20:48:51.603Z,16.32
2022-09-10T20:51:22.657Z,16.25
2022-09-10T20:53:49.696Z,16.24
2022-09-10T20:56:18.906Z,16.02
2022-09-10T20:58:46.790Z,16.11
2022-09-10T21:01:16.980Z,15.94
2022-09-10T21:03:44.872Z,16.12
2022-09-10T21:06:13.737Z,16.17
2022-09-10T21:08:42.430Z,16.13
2022-09-10T21:11:12.414Z,15.98
2022-09-10T21:13:45.477Z,15.79
2022-09-10T21:16:13.859Z,16.01
2022-09-10T21:18:42.330Z,15.55
2022-09-10T21:21:14.680Z,16.04
2022-09-10T21:23:42.891Z,15.98
2022-09-10T21:26:11.883Z,16.04
2022-09-10T21:28:40.105Z,16.04
2022-09-10T21:31:08.967Z,16.08
2022-09-10T21:33:36.846Z,16.09
2022-09-10T21:36:11.260Z,16.09
2022-09-10T21:38:38.816Z,16.13
2022-09-10T21:41:08.363Z,16.02
2022-09-10T21:43:35.631Z,15.72
2022-09-10T21:46:04.963Z,15.71
2022-09-10T21:48:35.708Z,15.55
2022-09-10T21:51:05.720Z,15.88
2022-09-10T21:53:34.486Z,15.95
2022-09-10T21:56:03.014Z,15.88
2022-09-10T21:58:33.121Z,15.68
2022-09-10T22:01:00.599Z,15.86
2022-09-10T22:03:29.744Z,15.85
2022-09-10T22:06:11.607Z,15.75
2022-09-10T22:08:41.131Z,15.77
2022-09-10T22:11:20.036Z,15.78
2022-09-10T22:13:52.013Z,15.76
2022-09-10T22:16:19.807Z,15.84
2022-09-10T22:18:47.291Z,15.86
2022-09-10T22:21:15.412Z,15.82
2022-09-10T22:23:43.711Z,15.78
2022-09-10T22:26:12.813Z,15.82
2022-09-10T22:28:40.777Z,15.77
2022-09-10T22:31:17.059Z,15.79
2022-09-10T22:33:45.881Z,15.84
2022-09-10T22:36:13.105Z,15.84
2022-09-10T22:38:41.532Z,15.74
2022-09-10T22:41:10.177Z,15.77
2022-09-10T22:43:38.334Z,15.77
2022-09-10T22:46:07.107Z,15.42
2022-09-10T22:48:38.415Z,15.74
2022-09-10T22:51:06.786Z,15.77
2022-09-10T22:53:35.151Z,15.68
2022-09-10T22:56:02.407Z,15.77
2022-09-10T22:58:29.422Z,15.81
2022-09-10T23:00:56.699Z,15.66
2022-09-10T23:03:23.817Z,15.65
2022-09-10T23:05:50.834Z,15.66
2022-09-10T23:08:18.217Z,15.78
2022-09-10T23:10:45.292Z,15.84
2022-09-10T23:13:12.291Z,15.84
2022-09-10T23:15:39.848Z,15.82
2022-09-10T23:18:07.077Z,15.62
2022-09-10T23:20:34.081Z,15.86
2022-09-10T23:23:01.081Z,15.42
2022-09-10T23:25:28.079Z,15.41
2022-09-10T23:27:55.840Z,15.78
2022-09-10T23:30:22.979Z,15.61
2022-09-10T23:32:50.471Z,15.86
2022-09-10T23:35:18.430Z,15.79
2022-09-10T23:37:45.792Z,15.77
2022-09-10T23:40:14.034Z,15.12
2022-09-10T23:42:41.107Z,15.76
2022-09-10T23:45:08.553Z,15.80
2022-09-10T23:47:35.599Z,15.83
2022-09-10T23:50:03.049Z,15.80
2022-09-10T23:52:30.094Z,15.36
2022-09-10T23:54:57.098Z,15.82
2022-09-10T23:57:25.186Z,15.51
2022-09-10T23:59:52.673Z,15.80
